Time;durP1;ratioP1;P1;durP2;ratioP2;P2;SDS_P1;SDS_P2;PMS_P1;PMS_P2;Temp;Humidity;BMP_temperature;BMP_pressure;BME280_temperature;BME280_humidity;BME280_pressure;Samples;Min_cycle;Max_cycle;Signal;HPM_P1;HPM_P2
2022/11/14 00:00:36;;;;;;;;;;;8.50;89.00;;;;;;4994263;28;20584;-45
2022/11/14 00:03:04;;;;;;;;;;;8.50;89.10;;;;;;5011686;28;20000;-45
2022/11/14 00:05:31;;;;;;;;;;;8.50;89.20;;;;;;5013132;28;20246;-44
2022/11/14 00:07:57;;;;;;;;;;;8.60;89.20;;;;;;5010057;28;19917;-45
2022/11/14 00:10:24;;;;;;;;;;;8.60;89.30;;;;;;5012913;28;20302;-45
2022/11/14 00:12:50;;;;;;;;;;;8.60;89.30;;;;;;5007860;28;19913;-45
2022/11/14 00:15:17;;;;;;;;;;;8.60;89.40;;;;;;4992662;28;19941;-44
2022/11/14 00:17:44;;;;;;;;;;;8.60;89.40;;;;;;5008426;28;19913;-45
2022/11/14 00:20:11;;;;;;;;;;;8.60;89.40;;;;;;4995644;28;19972;-46
2022/11/14 00:22:37;;;;;;;;;;;8.60;89.40;;;;;;4994827;28;20244;-45
2022/11/14 00:25:05;;;;;;;;;;;8.60;89.50;;;;;;4996544;28;19971;-46
2022/11/14 00:27:32;;;;;;;;;;;8.60;89.50;;;;;;5012286;28;19963;-45
2022/11/14 00:29:59;;;;;;;;;;;8.60;89.40;;;;;;5015208;28;19960;-46
2022/11/14 00:32:25;;;;;;;;;;;8.60;89.40;;;;;;5014629;28;19910;-44
2022/11/14 00:34:51;;;;;;;;;;;8.60;89.40;;;;;;5015986;28;19909;-45
2022/11/14 00:37:18;;;;;;;;;;;8.60;89.50;;;;;;5013955;28;20315;-44
2022/11/14 00:39:45;;;;;;;;;;;8.60;89.50;;;;;;5000389;28;19918;-44
2022/11/14 00:42:12;;;;;;;;;;;8.60;89.50;;;;;;4996741;28;20361;-46
2022/11/14 00:44:38;;;;;;;;;;;8.60;89.50;;;;;;4996141;28;20017;-45
2022/11/14 00:47:03;;;;;;;;;;;8.60;89.50;;;;;;5013810;28;20004;-45
2022/11/14 00:49:29;;;;;;;;;;;8.60;89.60;;;;;;4996728;28;20334;-45
2022/11/14 00:51:56;;;;;;;;;;;8.50;89.60;;;;;;5011754;28;19983;-45
2022/11/14 00:54:21;;;;;;;;;;;8.50;89.50;;;;;;4996057;28;20327;-45
2022/11/14 00:56:48;;;;;;;;;;;8.50;89.60;;;;;;5012858;28;19913;-44
2022/11/14 00:59:13;;;;;;;;;;;8.50;89.70;;;;;;5015568;28;19921;-46
2022/11/14 01:01:39;;;;;;;;;;;8.50;89.70;;;;;;5013493;28;19913;-44
2022/11/14 01:04:06;;;;;;;;;;;8.50;89.70;;;;;;5014662;28;19909;-48
2022/11/14 01:06:33;;;;;;;;;;;8.40;89.70;;;;;;5007550;28;19905;-45
2022/11/14 01:09:00;;;;;;;;;;;8.40;89.80;;;;;;5015566;28;19921;-44
2022/11/14 01:11:25;;;;;;;;;;;8.40;89.80;;;;;;5010447;28;20327;-47
2022/11/14 01:13:52;;;;;;;;;;;8.40;89.90;;;;;;4995944;28;19905;-44
2022/11/14 01:16:19;;;;;;;;;;;8.40;89.80;;;;;;5001789;28;20187;-45
2022/11/14 01:18:46;;;;;;;;;;;8.40;89.80;;;;;;4997575;28;19913;-44
2022/11/14 01:21:12;;;;;;;;;;;8.40;89.80;;;;;;5015007;28;19915;-45
2022/11/14 01:23:38;;;;;;;;;;;8.40;89.80;;;;;;5014195;28;19921;-44
2022/11/14 01:26:26;;;;;;;;;;;8.30;89.70;;;;;;4995374;28;20012;-45
2022/11/14 01:28:53;;;;;;;;;;;8.30;89.70;;;;;;4995315;28;19918;-44
2022/11/14 01:31:20;;;;;;;;;;;8.30;89.80;;;;;;4995091;28;19909;-45
2022/11/14 01:33:49;;;;;;;;;;;8.30;89.60;;;;;;5013891;28;20061;-44
2022/11/14 01:36:16;;;;;;;;;;;8.40;89.60;;;;;;5014887;28;19909;-45
2022/11/14 01:38:43;;;;;;;;;;;8.30;89.40;;;;;;4998116;28;19924;-45
2022/11/14 01:41:14;;;;;;;;;;;8.30;89.30;;;;;;5010483;28;19914;-44
2022/11/14 01:43:41;;;;;;;;;;;8.30;89.40;;;;;;5006492;28;19993;-45
2022/11/14 01:46:19;;;;;;;;;;;8.20;89.40;;;;;;5013773;28;20008;-45
2022/11/14 01:48:51;;;;;;;;;;;8.20;89.40;;;;;;5013486;28;19909;-45
2022/11/14 01:51:29;;;;;;;;;;;8.20;89.50;;;;;;5009122;28;19918;-44
2022/11/14 01:54:06;;;;;;;;;;;8.20;89.40;;;;;;5010221;28;19948;-43
2022/11/14 01:56:37;;;;;;;;;;;8.10;89.40;;;;;;5007813;28;20520;-45
2022/11/14 01:59:08;;;;;;;;;;;8.20;89.60;;;;;;4993727;28;20000;-46
2022/11/14 02:01:37;;;;;;;;;;;8.20;89.40;;;;;;4994100;28;20294;-46
2022/11/14 02:04:07;;;;;;;;;;;8.20;89.40;;;;;;4995834;28;19936;-45
2022/11/14 02:06:37;;;;;;;;;;;8.20;89.30;;;;;;5014351;28;19910;-45
2022/11/14 02:09:04;;;;;;;;;;;8.10;89.20;;;;;;5012431;28;19905;-46
2022/11/14 02:11:31;;;;;;;;;;;8.20;89.30;;;;;;5014296;28;19920;-46
2022/11/14 02:13:59;;;;;;;;;;;8.10;89.40;;;;;;5013014;28;20350;-45
2022/11/14 02:16:26;;;;;;;;;;;8.10;89.40;;;;;;5000257;28;19955;-44
2022/11/14 02:18:53;;;;;;;;;;;8.10;89.50;;;;;;5009052;28;19909;-44
2022/11/14 02:21:20;;;;;;;;;;;8.10;89.50;;;;;;5012910;28;19914;-44
2022/11/14 02:23:47;;;;;;;;;;;8.10;89.60;;;;;;5008711;28;20259;-45
2022/11/14 02:26:15;;;;;;;;;;;8.10;89.70;;;;;;4994661;28;20351;-44
2022/11/14 02:28:41;;;;;;;;;;;8.00;89.70;;;;;;4996930;28;19914;-44
2022/11/14 02:31:09;;;;;;;;;;;8.10;89.80;;;;;;4998158;28;19952;-45
2022/11/14 02:33:35;;;;;;;;;;;8.10;89.80;;;;;;5012212;28;20365;-45
2022/11/14 02:36:02;;;;;;;;;;;8.10;89.80;;;;;;5002271;28;19909;-45
2022/11/14 02:38:30;;;;;;;;;;;8.10;89.80;;;;;;4994519;28;19905;-44
2022/11/14 02:40:57;;;;;;;;;;;8.10;89.80;;;;;;5013960;28;20412;-45
2022/11/14 02:43:24;;;;;;;;;;;8.10;89.80;;;;;;4998727;28;19913;-44
2022/11/14 02:45:53;;;;;;;;;;;8.00;89.80;;;;;;4993235;28;20343;-45
2022/11/14 02:48:20;;;;;;;;;;;8.10;89.80;;;;;;5000347;28;19921;-45
2022/11/14 02:50:48;;;;;;;;;;;8.00;89.60;;;;;;5012730;28;19909;-44
2022/11/14 02:53:14;;;;;;;;;;;8.00;89.60;;;;;;5007373;28;19916;-46
2022/11/14 02:55:40;;;;;;;;;;;8.00;89.70;;;;;;4993035;28;19909;-44
2022/11/14 02:58:07;;;;;;;;;;;8.00;89.70;;;;;;4998065;28;19992;-44
2022/11/14 03:00:33;;;;;;;;;;;8.00;89.60;;;;;;5013535;28;19916;-44
2022/11/14 03:02:59;;;;;;;;;;;8.00;89.50;;;;;;5012645;28;19909;-44
2022/11/14 03:05:25;;;;;;;;;;;8.00;89.60;;;;;;5003040;28;20747;-44
2022/11/14 03:07:55;;;;;;;;;;;8.00;89.60;;;;;;4994112;28;19960;-45
2022/11/14 03:10:22;;;;;;;;;;;8.00;89.50;;;;;;5009480;28;19910;-45
2022/11/14 03:12:57;;;;;;;;;;;7.90;89.10;;;;;;4993042;28;19949;-43
2022/11/14 03:15:26;;;;;;;;;;;7.90;89.10;;;;;;5007876;28;20000;-45
2022/11/14 03:17:54;;;;;;;;;;;7.90;89.20;;;;;;4995849;28;19917;-48
2022/11/14 03:20:20;;;;;;;;;;;7.90;89.10;;;;;;5013382;28;19913;-44
2022/11/14 03:22:46;;;;;;;;;;;7.90;88.90;;;;;;5010444;28;19925;-44
2022/11/14 03:25:11;;;;;;;;;;;7.90;88.90;;;;;;5005972;28;20016;-44
2022/11/14 03:27:38;;;;;;;;;;;7.90;88.90;;;;;;5011065;28;19909;-44
2022/11/14 03:30:05;;;;;;;;;;;7.80;88.70;;;;;;4993603;28;20007;-44
2022/11/14 03:32:33;;;;;;;;;;;7.90;88.70;;;;;;4993579;28;19920;-45
2022/11/14 03:34:59;;;;;;;;;;;7.90;88.80;;;;;;5010358;28;19913;-45
2022/11/14 03:37:27;;;;;;;;;;;7.80;88.80;;;;;;5011153;28;19928;-44
2022/11/14 03:39:53;;;;;;;;;;;7.90;88.90;;;;;;5011434;28;19936;-44
2022/11/14 03:42:20;;;;;;;;;;;7.90;88.90;;;;;;5013138;28;20470;-45
2022/11/14 03:44:45;;;;;;;;;;;7.90;89.00;;;;;;4999211;28;19910;-46
2022/11/14 03:47:12;;;;;;;;;;;7.90;89.00;;;;;;4993270;28;20298;-44
2022/11/14 03:49:40;;;;;;;;;;;7.80;88.90;;;;;;5009081;28;19909;-45
2022/11/14 03:52:07;;;;;;;;;;;7.90;88.90;;;;;;5001700;28;19933;-45
2022/11/14 03:54:34;;;;;;;;;;;7.90;89.00;;;;;;4993375;28;20406;-45
2022/11/14 03:57:03;;;;;;;;;;;7.90;89.00;;;;;;4995978;28;19909;-45
2022/11/14 03:59:28;;;;;;;;;;;7.90;89.00;;;;;;5013441;28;19928;-45
2022/11/14 04:01:55;;;;;;;;;;;7.90;89.00;;;;;;5016865;28;19909;-45
2022/11/14 04:04:21;;;;;;;;;;;7.90;89.10;;;;;;5015910;28;19909;-45
2022/11/14 04:06:48;;;;;;;;;;;7.80;88.80;;;;;;5013000;28;20258;-44
2022/11/14 04:09:14;;;;;;;;;;;7.80;88.30;;;;;;5015201;28;19905;-44
2022/11/14 04:11:41;;;;;;;;;;;7.80;88.10;;;;;;4996931;28;19909;-44
2022/11/14 04:14:13;;;;;;;;;;;7.70;87.90;;;;;;5012049;28;19952;-45
2022/11/14 04:16:42;;;;;;;;;;;7.70;88.00;;;;;;5009464;28;20012;-45
2022/11/14 04:19:10;;;;;;;;;;;7.70;88.00;;;;;;5015400;28;19925;-45
2022/11/14 04:21:36;;;;;;;;;;;7.70;88.00;;;;;;5016288;28;19917;-44
2022/11/14 04:24:02;;;;;;;;;;;7.70;88.20;;;;;;5003619;28;20294;-46
2022/11/14 04:26:29;;;;;;;;;;;7.70;88.10;;;;;;5014794;28;19992;-45
2022/11/14 04:28:56;;;;;;;;;;;7.60;88.00;;;;;;5015356;28;19948;-45
2022/11/14 04:31:23;;;;;;;;;;;7.60;88.10;;;;;;4996977;28;19921;-45
2022/11/14 04:33:50;;;;;;;;;;;7.60;88.10;;;;;;4998840;28;20366;-44
2022/11/14 04:36:16;;;;;;;;;;;7.60;88.30;;;;;;5016115;28;19909;-46
2022/11/14 04:38:42;;;;;;;;;;;7.50;88.00;;;;;;5011347;28;19921;-44
2022/11/14 04:41:08;;;;;;;;;;;7.50;88.30;;;;;;4996096;28;19913;-45
2022/11/14 04:43:34;;;;;;;;;;;7.50;88.10;;;;;;5000543;28;20050;-45
2022/11/14 04:46:01;;;;;;;;;;;7.50;88.10;;;;;;5010655;28;20281;-44
2022/11/14 04:48:28;;;;;;;;;;;7.50;88.00;;;;;;5013862;28;20254;-44
2022/11/14 04:50:55;;;;;;;;;;;7.50;88.00;;;;;;4994897;28;19989;-44
2022/11/14 04:53:22;;;;;;;;;;;7.50;88.00;;;;;;4995210;28;20335;-45
2022/11/14 04:55:49;;;;;;;;;;;7.40;88.20;;;;;;5000436;28;20019;-44
2022/11/14 04:58:16;;;;;;;;;;;7.40;88.40;;;;;;5012594;28;20332;-44
2022/11/14 05:00:42;;;;;;;;;;;7.40;88.30;;;;;;5013453;28;19914;-45
2022/11/14 05:03:09;;;;;;;;;;;7.40;88.30;;;;;;5012783;28;20401;-45
2022/11/14 05:05:35;;;;;;;;;;;7.40;88.30;;;;;;5014181;28;19956;-45
2022/11/14 05:08:01;;;;;;;;;;;7.40;88.20;;;;;;5014019;28;20347;-44
2022/11/14 05:10:27;;;;;;;;;;;7.40;88.30;;;;;;5011170;28;19913;-44
2022/11/14 05:12:54;;;;;;;;;;;7.40;88.10;;;;;;5015501;28;19916;-44
2022/11/14 05:15:20;;;;;;;;;;;7.30;88.20;;;;;;5014346;28;19910;-45
2022/11/14 05:17:48;;;;;;;;;;;7.30;88.30;;;;;;5013328;28;19939;-44
2022/11/14 05:20:15;;;;;;;;;;;7.30;88.30;;;;;;5013882;28;19963;-44
2022/11/14 05:22:41;;;;;;;;;;;7.40;88.40;;;;;;5014556;28;19983;-45
2022/11/14 05:25:08;;;;;;;;;;;7.30;88.20;;;;;;5013484;28;20282;-45
2022/11/14 05:27:34;;;;;;;;;;;7.30;88.30;;;;;;5014637;28;19948;-45
2022/11/14 05:30:00;;;;;;;;;;;7.30;88.10;;;;;;4991256;28;19944;-45
2022/11/14 05:32:28;;;;;;;;;;;7.30;88.30;;;;;;5008929;28;19997;-45
2022/11/14 05:34:55;;;;;;;;;;;7.30;88.20;;;;;;4999914;28;19963;-44
2022/11/14 05:37:21;;;;;;;;;;;7.30;88.40;;;;;;4997700;28;19923;-46
2022/11/14 05:39:47;;;;;;;;;;;7.30;88.30;;;;;;4995696;28;19913;-44
2022/11/14 05:42:13;;;;;;;;;;;7.30;88.30;;;;;;5010725;28;20595;-45
2022/11/14 05:44:40;;;;;;;;;;;7.30;88.30;;;;;;5013439;28;20314;-44
2022/11/14 05:47:07;;;;;;;;;;;7.30;88.30;;;;;;5013465;28;19917;-44
2022/11/14 05:49:34;;;;;;;;;;;7.30;88.40;;;;;;5013634;28;19945;-45
2022/11/14 05:52:00;;;;;;;;;;;7.30;88.40;;;;;;5010895;28;19996;-44
2022/11/14 05:54:27;;;;;;;;;;;7.30;88.40;;;;;;5011335;28;20621;-44
2022/11/14 05:56:54;;;;;;;;;;;7.30;88.30;;;;;;5007150;28;19968;-44
2022/11/14 05:59:21;;;;;;;;;;;7.30;88.30;;;;;;5013457;28;20377;-45
2022/11/14 06:01:47;;;;;;;;;;;7.30;88.30;;;;;;5009699;28;19917;-45
2022/11/14 06:04:16;;;;;;;;;;;7.30;88.50;;;;;;5013202;28;19916;-44
2022/11/14 06:06:43;;;;;;;;;;;7.30;88.50;;;;;;5010738;28;19924;-44
2022/11/14 06:09:09;;;;;;;;;;;7.30;88.50;;;;;;5012790;28;19987;-45
2022/11/14 06:11:36;;;;;;;;;;;7.30;88.60;;;;;;5014071;28;19909;-44
2022/11/14 06:14:02;;;;;;;;;;;7.30;88.50;;;;;;5009025;28;19976;-45
2022/11/14 06:16:28;;;;;;;;;;;7.30;88.40;;;;;;4993792;28;20429;-46
2022/11/14 06:18:54;;;;;;;;;;;7.30;88.60;;;;;;5008454;28;19917;-45
2022/11/14 06:21:22;;;;;;;;;;;7.30;88.40;;;;;;5009691;28;19979;-44
2022/11/14 06:23:51;;;;;;;;;;;7.30;88.40;;;;;;5011819;28;19921;-44
2022/11/14 06:26:22;;;;;;;;;;;7.20;88.40;;;;;;5010082;28;19917;-46
2022/11/14 06:28:49;;;;;;;;;;;7.20;88.40;;;;;;5012855;28;19917;-45
2022/11/14 06:31:34;;;;;;;;;;;7.20;88.40;;;;;;5003362;28;20240;-45
2022/11/14 06:37:03;;;;;;;;;;;7.30;88.50;;;;;;5006597;28;19939;-45
2022/11/14 06:39:29;;;;;;;;;;;7.20;88.10;;;;;;5009241;28;20342;-45
2022/11/14 06:41:57;;;;;;;;;;;7.20;88.10;;;;;;5012132;28;19920;-44
2022/11/14 06:44:22;;;;;;;;;;;7.20;88.30;;;;;;5009924;28;19971;-45
2022/11/14 06:46:48;;;;;;;;;;;7.20;88.40;;;;;;5010213;28;20012;-45
2022/11/14 06:49:13;;;;;;;;;;;7.20;88.70;;;;;;5007911;28;20327;-45
2022/11/14 06:51:40;;;;;;;;;;;7.20;88.70;;;;;;5011072;28;19923;-45
2022/11/14 06:54:05;;;;;;;;;;;7.20;88.60;;;;;;5010740;28;19913;-46
2022/11/14 06:56:31;;;;;;;;;;;7.20;88.70;;;;;;5012604;28;20246;-45
2022/11/14 06:58:56;;;;;;;;;;;7.20;88.60;;;;;;5010789;28;20269;-46
2022/11/14 07:01:24;;;;;;;;;;;7.20;88.60;;;;;;5012040;28;20021;-46
2022/11/14 07:03:51;;;;;;;;;;;7.20;88.60;;;;;;5011821;28;20255;-45
2022/11/14 07:06:20;;;;;;;;;;;7.20;88.60;;;;;;5011007;28;19909;-45
2022/11/14 07:08:45;;;;;;;;;;;7.10;88.50;;;;;;5008454;28;20349;-45
2022/11/14 07:11:21;;;;;;;;;;;7.10;88.70;;;;;;5011714;28;19913;-45
2022/11/14 07:13:49;;;;;;;;;;;7.10;88.70;;;;;;5008917;28;19944;-45
2022/11/14 07:16:16;;;;;;;;;;;7.10;88.70;;;;;;5011700;28;19909;-44
2022/11/14 07:18:42;;;;;;;;;;;7.10;88.70;;;;;;5011526;28;19963;-45
2022/11/14 07:21:07;;;;;;;;;;;7.00;88.50;;;;;;5010915;28;19917;-44
2022/11/14 08:05:41;;;;;;;;;;;7.30;88.40;;;;;;4993129;28;20299;-45
2022/11/14 08:08:07;;;;;;;;;;;7.40;88.30;;;;;;5011656;28;19924;-45
2022/11/14 08:10:33;;;;;;;;;;;7.40;88.30;;;;;;5015130;28;20323;-47
2022/11/14 08:13:10;;;;;;;;;;;7.40;88.30;;;;;;5011323;28;19914;-45
2022/11/14 08:15:35;;;;;;;;;;;7.40;87.90;;;;;;5014885;28;20246;-44
2022/11/14 08:18:02;;;;;;;;;;;7.40;88.20;;;;;;5010543;28;19909;-47
2022/11/14 08:20:30;;;;;;;;;;;7.40;88.20;;;;;;5016701;28;19914;-48
2022/11/14 08:23:03;;;;;;;;;;;7.40;88.20;;;;;;5014368;28;19975;-47
2022/11/14 08:25:29;;;;;;;;;;;7.40;88.10;;;;;;5015480;28;20322;-45
2022/11/14 08:27:57;;;;;;;;;;;7.40;88.40;;;;;;5014296;28;20335;-45
2022/11/14 08:30:24;;;;;;;;;;;7.40;88.50;;;;;;5016454;28;19916;-46
2022/11/14 08:32:49;;;;;;;;;;;7.40;88.30;;;;;;5013738;28;19952;-49
2022/11/14 08:35:16;;;;;;;;;;;7.40;88.10;;;;;;5015279;28;19917;-48
2022/11/14 08:37:43;;;;;;;;;;;7.40;88.20;;;;;;5014378;28;19972;-44
2022/11/14 08:40:09;;;;;;;;;;;7.40;88.40;;;;;;5008404;28;19921;-48
2022/11/14 08:42:36;;;;;;;;;;;7.40;88.30;;;;;;5010931;28;19914;-50
2022/11/14 08:45:03;;;;;;;;;;;7.40;88.40;;;;;;5007275;28;20286;-49
2022/11/14 08:47:28;;;;;;;;;;;7.40;88.10;;;;;;5012996;28;19972;-45
2022/11/14 08:49:58;;;;;;;;;;;7.40;88.20;;;;;;4999758;28;19913;-48
2022/11/14 08:52:25;;;;;;;;;;;7.40;88.10;;;;;;5009148;28;19925;-45
2022/11/14 08:54:50;;;;;;;;;;;7.40;88.20;;;;;;5009799;28;20313;-49
2022/11/14 08:57:17;;;;;;;;;;;7.40;88.00;;;;;;5014452;28;19914;-45
2022/11/14 08:59:43;;;;;;;;;;;7.40;88.20;;;;;;5014723;28;19975;-50
2022/11/14 09:02:17;;;;;;;;;;;7.40;88.20;;;;;;5014492;28;19918;-45
2022/11/14 09:04:42;;;;;;;;;;;7.40;88.40;;;;;;5010144;28;20330;-45
2022/11/14 09:07:10;;;;;;;;;;;7.40;88.30;;;;;;5011047;28;19921;-48
2022/11/14 09:09:38;;;;;;;;;;;7.50;88.40;;;;;;5011213;28;19913;-47
2022/11/14 09:12:03;;;;;;;;;;;7.60;88.40;;;;;;5014101;28;19963;-43
2022/11/14 09:14:30;;;;;;;;;;;7.50;88.30;;;;;;5010003;28;20311;-45
2022/11/14 09:16:56;;;;;;;;;;;7.60;88.10;;;;;;5012429;28;19948;-45
2022/11/14 09:19:22;;;;;;;;;;;7.70;88.20;;;;;;5012774;28;19957;-49
2022/11/14 09:21:49;;;;;;;;;;;7.70;88.10;;;;;;5014175;28;20390;-45
2022/11/14 09:24:15;;;;;;;;;;;7.70;87.80;;;;;;5013550;28;19924;-49
2022/11/14 09:26:41;;;;;;;;;;;7.70;87.70;;;;;;5006174;28;20251;-43
2022/11/14 09:29:08;;;;;;;;;;;7.70;87.70;;;;;;5004209;28;19972;-48
2022/11/14 09:31:36;;;;;;;;;;;7.80;87.80;;;;;;5011651;28;19917;-44
2022/11/14 09:34:03;;;;;;;;;;;7.90;87.50;;;;;;5014433;28;19906;-44
2022/11/14 09:36:31;;;;;;;;;;;7.90;87.10;;;;;;5010148;28;19910;-45
2022/11/14 09:38:56;;;;;;;;;;;7.90;87.40;;;;;;5008752;28;20331;-45
2022/11/14 09:41:28;;;;;;;;;;;7.90;87.40;;;;;;5012153;28;20032;-46
2022/11/14 09:44:12;;;;;;;;;;;8.00;87.20;;;;;;5014085;28;19917;-45
2022/11/14 09:46:57;;;;;;;;;;;8.00;87.00;;;;;;5013132;28;19984;-45
2022/11/14 09:49:41;;;;;;;;;;;8.00;87.00;;;;;;5012602;28;19917;-44
2022/11/14 09:52:26;;;;;;;;;;;7.90;87.00;;;;;;5011555;28;19909;-47
2022/11/14 09:54:57;;;;;;;;;;;8.00;86.80;;;;;;5011195;28;19909;-46
2022/11/14 09:57:23;;;;;;;;;;;7.90;86.80;;;;;;5013172;28;19971;-50
2022/11/14 09:59:49;;;;;;;;;;;7.90;86.90;;;;;;5009373;28;19927;-46
2022/11/14 10:02:33;;;;;;;;;;;7.90;86.90;;;;;;5013870;28;19906;-47
2022/11/14 10:05:05;;;;;;;;;;;7.90;87.10;;;;;;5007441;28;20016;-45
2022/11/14 10:07:49;;;;;;;;;;;8.00;87.20;;;;;;4974189;28;19921;-45
2022/11/14 10:10:39;;;;;;;;;;;8.00;86.90;;;;;;4983123;28;19914;-45
2022/11/14 10:13:23;;;;;;;;;;;8.10;86.80;;;;;;4973142;28;19906;-47
2022/11/14 10:16:02;;;;;;;;;;;8.20;86.70;;;;;;4973128;28;19910;-46
2022/11/14 10:18:46;;;;;;;;;;;8.30;86.40;;;;;;4971834;28;19910;-45
2022/11/14 10:21:17;;;;;;;;;;;8.30;85.90;;;;;;4974596;28;19980;-49
2022/11/14 10:24:01;;;;;;;;;;;8.40;85.80;;;;;;4969722;28;19953;-47
2022/11/14 10:26:29;;;;;;;;;;;8.50;86.00;;;;;;4973033;28;19910;-46
2022/11/14 10:28:55;;;;;;;;;;;8.50;85.80;;;;;;4973320;28;20642;-46
2022/11/14 10:31:41;;;;;;;;;;;8.60;86.10;;;;;;4973821;28;19918;-49
2022/11/14 10:34:18;;;;;;;;;;;8.50;85.30;;;;;;4967671;28;19913;-48
2022/11/14 10:37:12;;;;;;;;;;;8.60;85.30;;;;;;4971717;28;19940;-46
2022/11/14 10:39:44;;;;;;;;;;;8.60;85.00;;;;;;4962049;28;19928;-45
2022/11/14 10:42:14;;;;;;;;;;;8.60;84.80;;;;;;4973131;28;20355;-48
2022/11/14 10:44:49;;;;;;;;;;;8.60;84.70;;;;;;4972140;28;20251;-45
2022/11/14 10:47:17;;;;;;;;;;;8.50;84.90;;;;;;4972996;28;20359;-45
2022/11/14 10:49:45;;;;;;;;;;;8.50;85.10;;;;;;4970446;28;19957;-45
2022/11/14 10:52:17;;;;;;;;;;;8.50;85.10;;;;;;4972821;28;19916;-49
2022/11/14 10:55:01;;;;;;;;;;;8.60;84.70;;;;;;4972450;28;20252;-45
2022/11/14 10:57:28;;;;;;;;;;;8.70;85.10;;;;;;4966087;28;19953;-45
2022/11/14 10:59:55;;;;;;;;;;;8.80;84.70;;;;;;4971987;28;20057;-45
2022/11/14 11:02:22;;;;;;;;;;;8.90;84.60;;;;;;4969985;28;19942;-46
2022/11/14 11:04:49;;;;;;;;;;;8.90;84.70;;;;;;4973015;28;19997;-45
2022/11/14 11:13:28;;;;;;;;;;;9.10;84.20;;;;;;5013032;28;19912;-49
2022/11/14 11:15:56;;;;;;;;;;;9.20;84.20;;;;;;4996191;28;19905;-45
2022/11/14 11:18:32;;;;;;;;;;;9.20;84.00;;;;;;5010611;28;20341;-46
2022/11/14 11:21:01;;;;;;;;;;;9.30;84.10;;;;;;5010228;28;20366;-46
2022/11/14 11:23:28;;;;;;;;;;;9.30;83.70;;;;;;5010810;28;20263;-45
2022/11/14 11:26:08;;;;;;;;;;;9.30;83.90;;;;;;5010779;28;19905;-45
2022/11/14 11:28:35;;;;;;;;;;;9.40;84.00;;;;;;5005175;28;19913;-46
2022/11/14 11:31:19;;;;;;;;;;;9.40;84.00;;;;;;5012947;28;19931;-45
2022/11/14 11:33:46;;;;;;;;;;;9.40;83.40;;;;;;5009766;28;19921;-46
2022/11/14 11:36:21;;;;;;;;;;;9.40;83.60;;;;;;5012148;28;19920;-45
2022/11/14 11:38:46;;;;;;;;;;;9.40;83.50;;;;;;5008963;28;20323;-45
2022/11/14 11:41:46;;;;;;;;;;;9.50;83.20;;;;;;5008428;28;19947;-46
2022/11/14 11:44:14;;;;;;;;;;;9.60;83.50;;;;;;4986783;28;21128;-45
2022/11/14 11:46:59;;;;;;;;;;;9.50;83.10;;;;;;5008387;28;19920;-45
2022/11/14 11:49:43;;;;;;;;;;;9.60;82.60;;;;;;5006104;28;20394;-45
2022/11/14 11:52:31;;;;;;;;;;;9.50;82.80;;;;;;5007299;28;19917;-46
2022/11/14 11:55:18;;;;;;;;;;;9.50;82.50;;;;;;5006965;28;19909;-47
2022/11/14 11:57:46;;;;;;;;;;;9.40;82.70;;;;;;5006361;28;19996;-45
2022/11/14 12:00:23;;;;;;;;;;;9.20;82.90;;;;;;5011834;28;19913;-45
2022/11/14 12:02:51;;;;;;;;;;;9.30;83.40;;;;;;5010708;28;19944;-45
2022/11/14 12:05:23;;;;;;;;;;;9.30;83.10;;;;;;5008967;28;19960;-48
2022/11/14 12:08:19;;;;;;;;;;;9.20;83.00;;;;;;5011702;28;20449;-45
2022/11/14 12:10:44;;;;;;;;;;;9.20;83.40;;;;;;4949478;29;19906;-45
2022/11/14 12:13:28;;;;;;;;;;;9.20;83.30;;;;;;4925532;29;19921;-47
2022/11/14 12:16:12;;;;;;;;;;;9.30;83.20;;;;;;4951245;29;19914;-49
2022/11/14 12:19:04;;;;;;;;;;;9.30;83.20;;;;;;4948249;29;19915;-46
2022/11/14 12:21:48;;;;;;;;;;;9.40;83.50;;;;;;4947644;29;19914;-48
2022/11/14 12:24:40;;;;;;;;;;;9.40;83.20;;;;;;4950556;29;20423;-47
2022/11/14 12:27:19;;;;;;;;;;;9.40;83.40;;;;;;4955343;29;19917;-45
2022/11/14 12:30:03;;;;;;;;;;;9.40;83.90;;;;;;4954411;29;19926;-48
2022/11/14 12:32:32;;;;;;;;;;;9.50;84.20;;;;;;4951046;29;19978;-45
2022/11/14 12:35:03;;;;;;;;;;;9.40;83.10;;;;;;4954647;29;19910;-45
2022/11/14 12:37:37;;;;;;;;;;;9.30;83.00;;;;;;4949389;29;19934;-44
2022/11/14 12:40:07;;;;;;;;;;;9.20;83.20;;;;;;4948430;29;20014;-45
2022/11/14 12:42:36;;;;;;;;;;;9.10;83.50;;;;;;4948569;29;19914;-45
2022/11/14 12:45:02;;;;;;;;;;;9.20;83.80;;;;;;4937894;29;19910;-47
2022/11/14 12:47:29;;;;;;;;;;;9.30;84.00;;;;;;4987493;28;19996;-45
2022/11/14 12:50:13;;;;;;;;;;;9.20;83.40;;;;;;5013064;28;19920;-46
2022/11/14 12:52:57;;;;;;;;;;;9.10;83.70;;;;;;5009017;28;19917;-48
2022/11/14 12:55:31;;;;;;;;;;;9.20;84.10;;;;;;5012847;28;19988;-45
2022/11/14 12:58:17;;;;;;;;;;;9.10;83.90;;;;;;5013870;28;19996;-45
2022/11/14 13:00:49;;;;;;;;;;;9.10;84.50;;;;;;5027545;28;20008;-45
2022/11/14 13:03:34;;;;;;;;;;;9.10;83.90;;;;;;5013509;28;20004;-45
2022/11/14 13:06:05;;;;;;;;;;;9.20;84.10;;;;;;5013879;28;19949;-46
2022/11/14 13:08:48;;;;;;;;;;;9.20;84.00;;;;;;5012516;28;19909;-45
2022/11/14 13:21:44;;;;;;;;;;;9.30;83.90;;;;;;5007662;28;19916;-45
2022/11/14 13:23:28;;;;;;;;;;;9.00;84.60;;;;;;5001621;28;19980;-45
2022/11/14 13:26:12;;;;;;;;;;;9.10;84.40;;;;;;5010184;28;19913;-46
2022/11/14 13:28:56;;;;;;;;;;;9.10;84.50;;;;;;5013388;28;19940;-45
2022/11/14 13:31:26;;;;;;;;;;;9.10;84.20;;;;;;5007923;28;19928;-45
2022/11/14 13:33:57;;;;;;;;;;;9.10;84.60;;;;;;5011880;28;20338;-46
2022/11/14 13:36:42;;;;;;;;;;;9.10;84.40;;;;;;4995291;28;20007;-44
2022/11/14 13:39:13;;;;;;;;;;;9.10;84.70;;;;;;5002705;28;19917;-45
2022/11/14 13:41:54;;;;;;;;;;;9.00;84.60;;;;;;4994887;28;19913;-45
2022/11/14 13:44:35;;;;;;;;;;;8.90;84.90;;;;;;4994364;28;19910;-45
2022/11/14 13:47:19;;;;;;;;;;;8.90;84.90;;;;;;5007654;28;19917;-45
2022/11/14 13:50:00;;;;;;;;;;;8.80;84.90;;;;;;5002836;28;19976;-45
2022/11/14 13:52:30;;;;;;;;;;;8.80;85.10;;;;;;4995883;28;20012;-45
2022/11/14 13:54:57;;;;;;;;;;;8.70;85.40;;;;;;5011358;28;19916;-48
2022/11/14 13:57:25;;;;;;;;;;;8.70;85.60;;;;;;5013482;28;19952;-45
2022/11/14 14:00:14;;;;;;;;;;;8.70;85.70;;;;;;5010259;28;20307;-45
2022/11/14 14:02:58;;;;;;;;;;;8.70;85.90;;;;;;5025948;28;19919;-44
2022/11/14 14:05:26;;;;;;;;;;;8.60;86.00;;;;;;5025256;28;19948;-46
2022/11/14 14:08:09;;;;;;;;;;;8.50;86.00;;;;;;5012789;28;19910;-48
2022/11/14 14:10:40;;;;;;;;;;;8.50;85.90;;;;;;5011404;28;19921;-47
2022/11/14 14:13:17;;;;;;;;;;;8.40;86.10;;;;;;5013861;28;19956;-44
2022/11/14 14:15:43;;;;;;;;;;;8.40;86.10;;;;;;4992974;28;19909;-44
2022/11/14 14:18:28;;;;;;;;;;;8.40;86.30;;;;;;4992916;28;20239;-44
2022/11/14 14:21:12;;;;;;;;;;;8.30;86.30;;;;;;5003050;28;19924;-45
2022/11/14 14:24:00;;;;;;;;;;;8.30;86.50;;;;;;5011981;28;20530;-45
2022/11/14 14:26:29;;;;;;;;;;;8.30;86.50;;;;;;5008234;28;19909;-45
2022/11/14 14:28:55;;;;;;;;;;;8.30;86.70;;;;;;4995465;28;19994;-48
2022/11/14 14:31:22;;;;;;;;;;;8.30;86.60;;;;;;5011500;28;19916;-45
2022/11/14 14:33:52;;;;;;;;;;;8.20;86.50;;;;;;5011347;28;19959;-47
2022/11/14 14:36:20;;;;;;;;;;;8.10;86.40;;;;;;5012949;28;20012;-45
2022/11/14 14:38:47;;;;;;;;;;;8.10;86.50;;;;;;5008032;28;19916;-46
2022/11/14 14:41:16;;;;;;;;;;;8.00;86.60;;;;;;5011228;28;20016;-43
2022/11/14 14:43:49;;;;;;;;;;;8.00;87.00;;;;;;5011770;28;19964;-45
2022/11/14 14:46:24;;;;;;;;;;;8.00;86.80;;;;;;5007201;28;19933;-43
2022/11/14 14:48:50;;;;;;;;;;;8.00;87.00;;;;;;5006947;28;20051;-44
2022/11/14 14:51:27;;;;;;;;;;;8.00;87.20;;;;;;5010277;28;20008;-45
2022/11/14 14:53:54;;;;;;;;;;;7.90;86.70;;;;;;5000909;28;19909;-45
2022/11/14 14:56:23;;;;;;;;;;;7.80;86.80;;;;;;5011286;28;19920;-44
2022/11/14 14:58:50;;;;;;;;;;;7.80;86.90;;;;;;5001873;28;20024;-45
2022/11/14 15:01:19;;;;;;;;;;;7.70;87.20;;;;;;4994961;28;20310;-45
2022/11/14 15:03:47;;;;;;;;;;;7.70;87.20;;;;;;5011699;28;19918;-46
2022/11/14 15:06:28;;;;;;;;;;;7.70;87.20;;;;;;5009961;28;20008;-44
2022/11/14 15:09:14;;;;;;;;;;;7.70;87.10;;;;;;5006305;28;19921;-45
2022/11/14 15:11:43;;;;;;;;;;;7.60;87.20;;;;;;5004666;28;19966;-44
2022/11/14 15:14:12;;;;;;;;;;;7.60;87.00;;;;;;5000434;28;20374;-44
2022/11/14 15:16:40;;;;;;;;;;;7.50;87.30;;;;;;5009391;28;20306;-46
2022/11/14 15:19:11;;;;;;;;;;;7.50;87.60;;;;;;5009551;28;19917;-45
2022/11/14 15:21:37;;;;;;;;;;;7.40;87.70;;;;;;5011999;28;19918;-46
2022/11/14 15:24:17;;;;;;;;;;;7.40;87.90;;;;;;5011152;28;20330;-45
2022/11/14 15:26:45;;;;;;;;;;;7.30;88.10;;;;;;5009123;28;19910;-45
2022/11/14 15:29:31;;;;;;;;;;;7.30;88.20;;;;;;5012430;28;20355;-45
2022/11/14 15:32:00;;;;;;;;;;;7.30;88.30;;;;;;5012176;28;20028;-45
2022/11/14 15:34:44;;;;;;;;;;;7.20;88.30;;;;;;5011476;28;19913;-44
2022/11/14 15:37:12;;;;;;;;;;;7.30;88.40;;;;;;5000053;28;19917;-45
2022/11/14 15:39:39;;;;;;;;;;;7.20;88.50;;;;;;4997019;28;20588;-45
2022/11/14 15:42:14;;;;;;;;;;;7.20;88.60;;;;;;5011936;28;19906;-45
2022/11/14 15:44:41;;;;;;;;;;;7.10;88.80;;;;;;5007891;28;20290;-44
2022/11/14 15:47:13;;;;;;;;;;;7.20;88.70;;;;;;4999509;28;20327;-45
2022/11/14 15:49:51;;;;;;;;;;;7.10;88.80;;;;;;4993086;28;20004;-44